Terminal Aerodrome Forecast
Issued by NWS

Home | Current Version | Previous Version | Text Only | Print | Product List | Glossary Off
Versions: 1 2 3 4 5 6 7 8 9 10 11 12 13 14 15 16 17

000
FTUS43 KBIS 281726
TAFMOT
TAF
KMOT 281726Z 2818/2918 20018G29KT P6SM OVC030
     FM282100 24032G50KT P6SM VCSH SCT025 OVC035
     FM290000 25032G48KT P6SM -SHRA OVC035
     FM290600 27030KT P6SM BKN070
     FM291200 28015G24KT P6SM SCT070=

USA.gov is the U.S. government's official web portal to all federal, state and local government web resources and services.